Terminal Aerodrome Forecast
Issued by NWS

Home | Current Version | Previous Version | Text Only | Print | Product List | Glossary On
Versions: 1 2 3 4 5 6 7 8 9 10 11 12 13 14 15 16 17 18 19 20 21 22
710
FTUS43 KGRR 092340
TAFJXN
TAF
KJXN 092340Z 1000/1024 28006KT P6SM FEW029 OVC050
     FM100300 27007KT P6SM -SHSN OVC035
     FM101400 25008KT 2SM -SHSN OVC015=

USA.gov is the U.S. government's official web portal to all federal, state and local government web resources and services.